createdAt,value
2023-02-05T00:00:56.789Z,52.51
2023-02-05T00:01:56.792Z,55.42
2023-02-05T00:02:56.775Z,60.33
2023-02-05T00:03:56.768Z,60.04
2023-02-05T00:04:56.749Z,63.20
2023-02-05T00:05:56.753Z,56.39
2023-02-05T00:06:56.730Z,58.78
2023-02-05T00:07:56.736Z,61.39
2023-02-05T00:08:56.726Z,61.37
2023-02-05T00:09:57.726Z,55.84
2023-02-05T00:10:56.705Z,60.58
2023-02-05T00:11:56.775Z,56.73
2023-02-05T00:12:56.709Z,61.98
2023-02-05T00:13:56.686Z,60.52
2023-02-05T00:14:56.673Z,58.82
2023-02-05T00:15:56.682Z,56.94
2023-02-05T00:16:56.797Z,60.02
2023-02-05T00:17:56.654Z,57.06
2023-02-05T00:18:56.646Z,57.56
2023-02-05T00:19:57.201Z,63.19
2023-02-05T00:20:56.655Z,59.88
2023-02-05T00:21:56.623Z,60.10
2023-02-05T00:22:56.611Z,59.39
2023-02-05T00:23:56.611Z,58.36
2023-02-05T00:26:46.150Z,53.62
2023-02-05T00:27:46.958Z,55.74
2023-02-05T00:28:46.148Z,46.35
2023-02-05T00:29:46.124Z,52.62
2023-02-05T00:30:48.093Z,58.85
2023-02-05T00:31:46.231Z,58.54
2023-02-05T00:32:46.096Z,58.20
2023-02-05T00:33:46.091Z,60.72
2023-02-05T00:34:46.078Z,58.87
2023-02-05T00:35:46.142Z,60.97
2023-02-05T00:36:46.080Z,57.48
2023-02-05T00:37:46.056Z,62.53
2023-02-05T00:38:46.066Z,58.64
2023-02-05T00:39:46.047Z,56.40
2023-02-05T00:40:46.048Z,59.70
2023-02-05T00:41:46.027Z,59.00
2023-02-05T00:42:46.022Z,61.67
2023-02-05T00:43:46.024Z,61.35
2023-02-05T00:44:46.462Z,59.96
2023-02-05T00:45:46.070Z,55.50
2023-02-05T00:46:45.987Z,56.28
2023-02-05T00:47:45.979Z,59.50
2023-02-05T00:48:45.975Z,57.16
2023-02-05T00:49:45.980Z,53.20
2023-02-05T00:50:45.961Z,61.17
2023-02-05T00:51:45.951Z,58.32
2023-02-05T00:52:45.946Z,63.05
2023-02-05T00:53:47.481Z,59.82
2023-02-05T00:54:45.933Z,59.31
2023-02-05T00:55:45.916Z,59.44
2023-02-05T00:56:47.470Z,59.37
2023-02-05T00:57:45.898Z,56.34
2023-02-05T00:58:45.906Z,58.46
2023-02-05T00:59:46.461Z,57.84
2023-02-05T01:00:45.892Z,60.86
2023-02-05T01:01:45.929Z,56.10
2023-02-05T01:02:45.909Z,60.90
2023-02-05T01:03:45.861Z,62.10
2023-02-05T01:04:46.942Z,54.03
2023-02-05T01:05:46.931Z,53.02
2023-02-05T01:06:46.926Z,61.73
2023-02-05T01:07:46.925Z,56.25
2023-02-05T01:08:46.920Z,53.44
2023-02-05T01:09:46.910Z,60.89
2023-02-05T01:10:47.468Z,55.35
2023-02-05T01:11:46.883Z,47.46
2023-02-05T01:12:46.872Z,53.01
2023-02-05T01:13:46.868Z,58.84
2023-02-05T01:14:46.864Z,54.22
2023-02-05T01:15:46.916Z,60.15
2023-02-05T01:16:46.853Z,61.45
2023-02-05T01:17:46.851Z,54.97
2023-02-05T01:18:48.472Z,59.80
2023-02-05T01:19:46.828Z,51.72
2023-02-05T01:20:46.852Z,55.23
2023-02-05T01:21:48.557Z,55.01
2023-02-05T01:22:46.804Z,54.10
2023-02-05T01:23:46.795Z,60.94
2023-02-05T01:24:46.807Z,54.07
2023-02-05T01:25:46.804Z,57.80
2023-02-05T01:26:46.779Z,55.10
2023-02-05T01:27:46.795Z,56.62
2023-02-05T01:28:47.462Z,57.64
2023-02-05T01:29:46.763Z,53.12
2023-02-05T01:30:46.800Z,55.81
2023-02-05T01:31:46.827Z,53.97
2023-02-05T01:32:47.466Z,60.18
2023-02-05T01:33:46.756Z,60.45
2023-02-05T01:34:46.719Z,56.11
2023-02-05T01:35:46.703Z,55.03
2023-02-05T01:36:46.694Z,55.08
2023-02-05T01:37:47.707Z,55.23
2023-02-05T01:38:46.687Z,55.04
2023-02-05T01:39:46.672Z,57.05
2023-02-05T01:40:46.691Z,53.67
2023-02-05T01:41:46.665Z,59.27
2023-02-05T01:42:46.644Z,57.42
2023-02-05T01:43:46.654Z,57.96
2023-02-05T01:44:46.624Z,53.63
2023-02-05T01:45:46.615Z,52.85
2023-02-05T01:46:46.638Z,61.10
2023-02-05T01:47:46.600Z,57.36
2023-02-05T01:48:46.597Z,51.00
2023-02-05T01:49:46.596Z,58.29
2023-02-05T01:50:46.574Z,57.34
2023-02-05T01:51:46.575Z,57.12
2023-02-05T01:52:46.581Z,62.87
2023-02-05T01:53:46.565Z,57.34
2023-02-05T01:54:46.550Z,59.32
2023-02-05T01:55:46.533Z,56.45
2023-02-05T01:56:46.528Z,57.93
2023-02-05T01:57:46.540Z,58.05
2023-02-05T01:58:46.522Z,52.71
2023-02-05T01:59:46.522Z,49.48
2023-02-05T02:00:46.502Z,48.45
2023-02-05T02:01:46.532Z,60.00
2023-02-05T02:02:46.484Z,61.71
2023-02-05T02:03:48.052Z,57.81
2023-02-05T02:04:46.512Z,58.02
2023-02-05T02:05:46.464Z,56.31
2023-02-05T02:06:46.452Z,52.11
2023-02-05T02:07:46.441Z,57.88
2023-02-05T02:08:46.449Z,52.42
2023-02-05T02:09:46.425Z,47.80
2023-02-05T02:10:47.043Z,53.94
2023-02-05T02:11:46.421Z,55.03
2023-02-05T02:12:46.414Z,54.89
2023-02-05T02:13:46.396Z,51.07
2023-02-05T02:14:46.437Z,54.85
2023-02-05T02:15:46.406Z,57.88
2023-02-05T02:16:48.963Z,48.19
2023-02-05T02:17:47.065Z,56.33
2023-02-05T02:18:46.391Z,52.68
2023-02-05T02:19:46.355Z,54.34
2023-02-05T02:20:46.342Z,58.47
2023-02-05T02:21:47.040Z,51.45
2023-02-05T02:22:46.343Z,63.85
2023-02-05T02:23:46.333Z,55.44
2023-02-05T02:24:46.311Z,55.51
2023-02-05T02:25:46.313Z,56.99
2023-02-05T02:26:46.296Z,54.16
2023-02-05T02:27:46.382Z,48.96
2023-02-05T02:28:46.297Z,51.04
2023-02-05T02:29:46.275Z,52.14
2023-02-05T02:30:46.272Z,59.72
2023-02-05T02:31:48.037Z,58.45
2023-02-05T02:32:47.049Z,49.02
2023-02-05T02:33:46.255Z,56.84
2023-02-05T02:34:46.240Z,60.64
2023-02-05T02:35:46.222Z,56.22
2023-02-05T02:36:46.214Z,45.32
2023-02-05T02:37:46.206Z,51.46
2023-02-05T02:38:46.989Z,54.50
2023-02-05T02:39:46.208Z,61.66
2023-02-05T02:40:46.190Z,50.57
2023-02-05T02:41:46.182Z,47.93
2023-02-05T02:42:46.177Z,51.30
2023-02-05T02:43:46.156Z,56.55
2023-02-05T02:44:46.194Z,57.62
2023-02-05T02:45:46.155Z,54.95
2023-02-05T02:46:46.187Z,56.07
2023-02-05T02:47:46.136Z,54.80
2023-02-05T02:48:46.128Z,53.90
2023-02-05T02:49:46.117Z,57.00
2023-02-05T02:50:46.121Z,52.92
2023-02-05T02:51:46.101Z,59.43
2023-02-05T02:52:46.102Z,57.84
2023-02-05T02:53:46.091Z,59.47
2023-02-05T02:54:46.093Z,54.22
2023-02-05T02:55:46.117Z,51.05
2023-02-05T02:56:46.064Z,56.58
2023-02-05T02:57:46.068Z,53.70
2023-02-05T02:58:46.064Z,45.99
2023-02-05T02:59:47.547Z,52.71
2023-02-05T03:00:46.119Z,51.88
2023-02-05T03:01:53.330Z,45.71
2023-02-05T03:02:48.024Z,57.34
2023-02-05T03:03:47.986Z,60.41
2023-02-05T03:04:46.009Z,59.77
2023-02-05T03:05:46.003Z,54.84
2023-02-05T03:06:45.989Z,55.54
2023-02-05T03:07:46.005Z,53.62
2023-02-05T03:08:45.997Z,50.57
2023-02-05T03:09:45.965Z,47.95
2023-02-05T03:10:46.488Z,56.65
2023-02-05T03:11:46.556Z,56.12
2023-02-05T03:12:45.951Z,55.99
2023-02-05T03:13:45.946Z,51.41
2023-02-05T03:14:45.930Z,58.00
2023-02-05T03:15:45.927Z,57.59
2023-02-05T03:16:45.921Z,57.35
2023-02-05T03:17:45.923Z,53.45
2023-02-05T03:18:47.499Z,59.97
2023-02-05T03:19:46.480Z,57.75
2023-02-05T03:20:45.887Z,41.82
2023-02-05T03:21:45.882Z,45.30
2023-02-05T03:22:47.551Z,56.71
2023-02-05T03:23:45.868Z,50.06
2023-02-05T03:24:45.864Z,56.10
2023-02-05T03:25:45.849Z,59.38
2023-02-05T03:26:45.839Z,46.30
2023-02-05T03:27:45.858Z,52.28
2023-02-05T03:28:45.865Z,57.90
2023-02-05T03:29:45.814Z,53.96
2023-02-05T03:30:45.851Z,57.93
2023-02-05T03:31:45.808Z,58.42
2023-02-05T03:32:45.783Z,57.14
2023-02-05T03:33:45.786Z,59.79
2023-02-05T03:34:45.778Z,58.79
2023-02-05T03:35:45.758Z,56.20
2023-02-05T03:36:45.759Z,54.61
2023-02-05T03:37:47.481Z,57.80
2023-02-05T03:38:45.746Z,60.06
2023-02-05T03:39:45.726Z,58.87
2023-02-05T03:40:45.728Z,63.57
2023-02-05T03:41:45.725Z,63.81
2023-02-05T03:42:45.707Z,60.25
2023-02-05T03:43:46.691Z,57.93
2023-02-05T03:44:45.701Z,50.19
2023-02-05T03:45:47.578Z,39.75
2023-02-05T03:46:45.684Z,52.51
2023-02-05T03:47:45.667Z,51.72
2023-02-05T03:48:47.555Z,44.68
2023-02-05T03:49:45.660Z,54.08
2023-02-05T03:50:45.643Z,52.56
2023-02-05T03:51:45.669Z,50.45
2023-02-05T03:52:45.627Z,56.70
2023-02-05T03:53:45.617Z,52.69
2023-02-05T03:54:45.609Z,46.64
2023-02-05T03:55:47.564Z,45.39
2023-02-05T03:56:45.595Z,49.19
2023-02-05T03:57:45.579Z,47.72
2023-02-05T03:58:45.587Z,55.87
2023-02-05T03:59:45.560Z,53.27
2023-02-05T04:00:45.684Z,47.15
2023-02-05T04:01:46.546Z,46.53
2023-02-05T04:02:45.541Z,47.49
2023-02-05T04:03:45.529Z,61.89
2023-02-05T04:04:45.544Z,58.07
2023-02-05T04:05:45.570Z,56.92
2023-02-05T04:06:45.513Z,47.54
2023-02-05T04:07:45.496Z,40.65
2023-02-05T04:08:46.069Z,55.33
2023-02-05T04:09:46.479Z,50.65
2023-02-05T04:10:45.467Z,51.77
2023-02-05T04:11:45.460Z,50.36
2023-02-05T04:12:45.477Z,39.81
2023-02-05T04:13:45.458Z,44.28
2023-02-05T04:14:45.445Z,53.31
2023-02-05T04:15:45.430Z,50.31
2023-02-05T04:16:45.461Z,47.30
2023-02-05T04:17:45.415Z,44.13
2023-02-05T04:18:45.402Z,47.04
2023-02-05T04:19:45.404Z,56.47
2023-02-05T04:20:45.399Z,56.15
2023-02-05T04:21:45.388Z,58.66
2023-02-05T04:22:45.385Z,58.13
2023-02-05T04:23:45.385Z,51.07
2023-02-05T04:24:45.357Z,49.79
2023-02-05T04:25:45.353Z,50.57
2023-02-05T04:26:45.347Z,53.27
2023-02-05T04:27:45.352Z,57.67
2023-02-05T04:28:47.053Z,56.21
2023-02-05T04:29:45.321Z,50.36
2023-02-05T04:30:45.357Z,51.27
2023-02-05T04:31:47.092Z,54.10
2023-02-05T04:32:45.308Z,52.84
2023-02-05T04:33:45.300Z,54.45
2023-02-05T04:34:45.295Z,51.74
2023-02-05T04:35:45.285Z,53.84
2023-02-05T04:36:45.292Z,57.36
2023-02-05T04:37:45.272Z,53.25
2023-02-05T04:38:45.268Z,52.59
2023-02-05T04:39:45.256Z,50.82
2023-02-05T04:40:45.242Z,53.18
2023-02-05T04:41:45.239Z,60.13
2023-02-05T04:42:45.238Z,56.31
2023-02-05T04:43:45.225Z,50.42
2023-02-05T04:44:45.211Z,53.87
2023-02-05T04:45:45.313Z,49.43
2023-02-05T04:46:45.199Z,58.04
2023-02-05T04:47:45.186Z,53.91
2023-02-05T04:48:45.220Z,53.10
2023-02-05T04:49:45.174Z,51.96
2023-02-05T04:50:45.178Z,57.47
2023-02-05T04:51:45.165Z,54.73
2023-02-05T04:52:45.150Z,46.88
2023-02-05T04:53:45.265Z,60.12
2023-02-05T04:54:45.140Z,43.23
2023-02-05T04:55:45.131Z,53.49
2023-02-05T04:56:45.124Z,54.45
2023-02-05T04:57:45.120Z,57.57
2023-02-05T04:58:45.119Z,57.63
2023-02-05T04:59:45.106Z,58.79
2023-02-05T05:00:45.097Z,50.07
2023-02-05T05:01:45.095Z,48.47
2023-02-05T05:02:46.203Z,40.75
2023-02-05T05:03:45.064Z,52.97
2023-02-05T05:04:45.060Z,55.04
2023-02-05T05:05:45.053Z,56.94
2023-02-05T05:06:45.083Z,56.56
2023-02-05T05:07:45.036Z,55.19
2023-02-05T05:08:45.044Z,52.42
2023-02-05T05:09:46.568Z,52.36
2023-02-05T05:10:45.006Z,52.15
2023-02-05T05:11:45.014Z,57.57
2023-02-05T05:12:44.989Z,49.69
2023-02-05T05:13:45.980Z,53.53
2023-02-05T05:14:44.982Z,58.05
2023-02-05T05:15:45.014Z,62.49
2023-02-05T05:16:44.973Z,54.96
2023-02-05T05:17:44.960Z,57.39
2023-02-05T05:18:44.948Z,56.30
2023-02-05T05:19:44.935Z,48.79
2023-02-05T05:20:45.499Z,51.96
2023-02-05T05:21:44.921Z,53.63
2023-02-05T05:22:44.942Z,57.35
2023-02-05T05:23:44.913Z,51.66
2023-02-05T05:24:44.894Z,47.53
2023-02-05T05:25:46.573Z,53.30
2023-02-05T05:26:44.885Z,56.31
2023-02-05T05:27:44.897Z,44.83
2023-02-05T05:28:44.874Z,51.42
2023-02-05T05:29:44.883Z,47.74
2023-02-05T05:30:46.541Z,49.35
2023-02-05T05:31:46.535Z,48.59
2023-02-05T05:32:44.824Z,56.58
2023-02-05T05:33:45.854Z,52.72
2023-02-05T05:34:44.842Z,52.50
2023-02-05T05:35:46.566Z,52.25
2023-02-05T05:36:44.809Z,52.30
2023-02-05T05:37:44.816Z,55.48
2023-02-05T05:38:44.793Z,51.65
2023-02-05T05:39:45.575Z,55.64
2023-02-05T05:40:44.774Z,54.72
2023-02-05T05:41:44.779Z,49.30
2023-02-05T05:42:44.756Z,54.09
2023-02-05T05:43:44.758Z,47.49
2023-02-05T05:44:44.747Z,48.29
2023-02-05T05:45:44.767Z,47.81
2023-02-05T05:46:44.731Z,40.20
2023-02-05T05:47:44.729Z,59.47
2023-02-05T05:48:44.733Z,51.29
2023-02-05T05:49:44.725Z,55.68
2023-02-05T05:50:46.498Z,55.03
2023-02-05T05:51:44.690Z,60.88
2023-02-05T05:52:44.680Z,54.25
2023-02-05T05:53:44.678Z,51.74
2023-02-05T05:54:44.677Z,47.53
2023-02-05T05:55:44.660Z,48.36
2023-02-05T05:56:44.650Z,53.31
2023-02-05T05:57:44.647Z,50.82
2023-02-05T05:58:44.631Z,51.52
2023-02-05T05:59:44.626Z,57.50
2023-02-05T06:00:44.617Z,53.83
2023-02-05T06:01:44.613Z,47.99
2023-02-05T06:02:44.691Z,53.44
2023-02-05T06:03:44.585Z,45.42
2023-02-05T06:04:44.603Z,45.41
2023-02-05T06:05:44.573Z,46.69
2023-02-05T06:06:44.569Z,47.19
2023-02-05T06:07:44.555Z,41.55
2023-02-05T06:08:44.555Z,46.44
2023-02-05T06:09:44.540Z,49.39
2023-02-05T06:10:45.501Z,55.43
2023-02-05T06:11:44.525Z,46.17
2023-02-05T06:12:44.516Z,52.27
2023-02-05T06:13:44.516Z,57.73
2023-02-05T06:14:44.508Z,43.98
2023-02-05T06:15:44.534Z,46.30
2023-02-05T06:16:44.478Z,51.58
2023-02-05T06:17:44.480Z,53.56
2023-02-05T06:18:45.476Z,51.85
2023-02-05T06:19:46.076Z,51.90
2023-02-05T06:20:46.072Z,52.67
2023-02-05T06:21:44.442Z,56.15
2023-02-05T06:22:44.431Z,58.82
2023-02-05T06:23:44.435Z,42.49
2023-02-05T06:24:44.418Z,40.72
2023-02-05T06:25:44.419Z,52.62
2023-02-05T06:26:45.984Z,43.91
2023-02-05T06:27:44.424Z,54.30
2023-02-05T06:28:44.396Z,52.40
2023-02-05T06:29:45.210Z,63.86
2023-02-05T06:30:44.400Z,55.70
2023-02-05T06:31:44.566Z,47.70
2023-02-05T06:32:44.354Z,53.09
2023-02-05T06:33:44.352Z,55.98
2023-02-05T06:34:44.345Z,59.78
2023-02-05T06:35:44.348Z,54.39
2023-02-05T06:36:44.337Z,56.54
2023-02-05T06:37:47.885Z,50.02
2023-02-05T06:38:45.319Z,44.49
2023-02-05T06:39:44.301Z,50.39
2023-02-05T06:40:44.301Z,52.90
2023-02-05T06:41:44.293Z,51.58
2023-02-05T06:42:44.280Z,48.12
2023-02-05T06:43:44.283Z,53.09
2023-02-05T06:44:44.271Z,50.43
2023-02-05T06:45:44.273Z,56.18
2023-02-05T06:46:44.281Z,59.52
2023-02-05T06:47:44.252Z,49.54
2023-02-05T06:48:44.233Z,54.02
2023-02-05T06:49:44.234Z,54.79
2023-02-05T06:50:44.226Z,57.19
2023-02-05T06:51:44.210Z,55.13
2023-02-05T06:52:45.995Z,62.65
2023-02-05T06:53:46.101Z,49.48
2023-02-05T06:54:45.190Z,54.14
2023-02-05T06:55:44.190Z,59.51
2023-02-05T06:56:44.169Z,58.91
2023-02-05T06:57:44.165Z,55.15
2023-02-05T06:58:45.147Z,61.88
2023-02-05T06:59:44.142Z,58.71
2023-02-05T07:00:44.136Z,53.06
2023-02-05T07:01:44.181Z,54.45
2023-02-05T07:02:44.158Z,55.81
2023-02-05T07:03:44.121Z,53.21
2023-02-05T07:04:44.107Z,58.01
2023-02-05T07:05:44.106Z,52.63
2023-02-05T07:06:44.097Z,59.23
2023-02-05T07:07:44.100Z,50.56
2023-02-05T07:08:44.077Z,53.24
2023-02-05T07:09:44.068Z,58.43
2023-02-05T07:10:44.060Z,59.13
2023-02-05T07:11:44.064Z,56.69
2023-02-05T07:12:44.049Z,58.00
2023-02-05T07:13:45.002Z,53.59
2023-02-05T07:14:44.028Z,54.77
2023-02-05T07:15:45.651Z,56.51
2023-02-05T07:16:44.023Z,61.05
2023-02-05T07:17:44.589Z,51.15
2023-02-05T07:18:45.580Z,54.53
2023-02-05T07:19:44.003Z,55.98
2023-02-05T07:20:43.986Z,56.10
2023-02-05T07:21:43.980Z,61.96
2023-02-05T07:22:43.969Z,63.36
2023-02-05T07:23:43.967Z,51.87
2023-02-05T07:24:44.620Z,53.89
2023-02-05T07:25:43.964Z,55.43
2023-02-05T07:26:44.517Z,55.72
2023-02-05T07:27:43.950Z,58.48
2023-02-05T07:28:43.934Z,54.83
2023-02-05T07:29:47.512Z,52.04
2023-02-05T07:30:43.956Z,55.18
2023-02-05T07:31:45.701Z,58.64
2023-02-05T07:32:43.900Z,58.02
2023-02-05T07:33:43.912Z,56.41
2023-02-05T07:34:45.510Z,55.22
2023-02-05T07:35:43.864Z,53.24
2023-02-05T07:36:43.854Z,54.49
2023-02-05T07:37:43.854Z,56.07
2023-02-05T07:38:43.853Z,56.35
2023-02-05T07:39:43.840Z,56.54
2023-02-05T07:40:43.826Z,57.82
2023-02-05T07:41:43.843Z,51.42
2023-02-05T07:42:43.809Z,62.32
2023-02-05T07:43:43.796Z,56.54
2023-02-05T07:44:43.801Z,56.24
2023-02-05T07:45:43.797Z,54.08
2023-02-05T07:46:43.846Z,59.49
2023-02-05T07:47:43.769Z,58.53
2023-02-05T07:48:43.763Z,62.20
2023-02-05T07:49:43.756Z,57.38
2023-02-05T07:50:43.760Z,53.13
2023-02-05T07:51:43.740Z,58.39
2023-02-05T07:52:43.742Z,61.98
2023-02-05T07:53:43.722Z,56.18
2023-02-05T07:54:43.720Z,56.73
2023-02-05T07:55:43.700Z,59.81
2023-02-05T07:56:43.700Z,50.94
2023-02-05T07:57:43.675Z,59.51
2023-02-05T07:58:44.686Z,62.23
2023-02-05T07:59:43.670Z,58.22
2023-02-05T08:00:43.713Z,62.18
2023-02-05T08:01:43.671Z,60.17
2023-02-05T08:02:43.643Z,60.70
2023-02-05T08:03:45.528Z,62.68
2023-02-05T08:04:43.681Z,63.37
2023-02-05T08:05:43.637Z,61.39
2023-02-05T08:06:43.624Z,58.06
2023-02-05T08:07:44.506Z,60.06
2023-02-05T08:08:44.528Z,56.04
2023-02-05T08:09:43.607Z,57.71
2023-02-05T08:10:43.587Z,59.57
2023-02-05T08:11:43.580Z,56.39
2023-02-05T08:12:45.505Z,60.11
2023-02-05T08:13:43.564Z,60.28
2023-02-05T08:14:43.562Z,57.63
2023-02-05T08:15:43.554Z,61.21
2023-02-05T08:16:44.506Z,57.93
2023-02-05T08:17:43.531Z,55.47
2023-02-05T08:18:43.529Z,59.59
2023-02-05T08:19:43.523Z,61.48
2023-02-05T08:20:43.512Z,64.97
2023-02-05T08:21:43.521Z,59.15
2023-02-05T08:22:43.517Z,62.34
2023-02-05T08:23:44.012Z,52.91
2023-02-05T08:24:45.081Z,60.95
2023-02-05T08:25:43.478Z,62.41
2023-02-05T08:26:43.460Z,61.61
2023-02-05T08:27:43.506Z,62.70
2023-02-05T08:28:43.483Z,60.54
2023-02-05T08:29:45.097Z,61.50
2023-02-05T08:30:44.062Z,57.74
2023-02-05T08:31:43.477Z,62.53
2023-02-05T08:32:43.432Z,61.65
2023-02-05T08:33:43.421Z,62.79
2023-02-05T08:34:43.405Z,64.52
2023-02-05T08:35:43.405Z,64.56
2023-02-05T08:36:45.023Z,63.16
2023-02-05T08:37:45.092Z,62.95
2023-02-05T08:38:43.375Z,55.58
2023-02-05T08:39:43.367Z,63.04
2023-02-05T08:40:43.365Z,58.23
2023-02-05T08:41:43.362Z,60.34
2023-02-05T08:42:43.345Z,61.69
2023-02-05T08:43:43.328Z,61.40
2023-02-05T08:44:43.336Z,59.64
2023-02-05T08:45:43.348Z,63.25
2023-02-05T08:46:49.817Z,62.03
2023-02-05T08:47:45.302Z,63.60
2023-02-05T08:48:43.295Z,59.60
2023-02-05T08:49:44.092Z,60.63
2023-02-05T08:50:43.277Z,62.01
2023-02-05T08:51:44.015Z,64.03
2023-02-05T08:52:43.270Z,62.42
2023-02-05T08:53:43.302Z,63.24
2023-02-05T08:54:43.247Z,66.87
2023-02-05T08:55:43.242Z,64.97
2023-02-05T08:56:43.234Z,62.10
2023-02-05T08:57:44.215Z,66.28
2023-02-05T08:58:43.259Z,66.14
2023-02-05T08:59:43.201Z,64.05
2023-02-05T09:00:43.192Z,65.72
2023-02-05T09:01:43.286Z,65.00
2023-02-05T09:02:43.197Z,62.21
2023-02-05T09:03:43.168Z,60.47
2023-02-05T09:04:43.245Z,60.66
2023-02-05T09:05:43.162Z,62.80
2023-02-05T09:06:43.145Z,63.81
2023-02-05T09:07:44.094Z,64.15
2023-02-05T09:08:43.144Z,62.48
2023-02-05T09:09:49.119Z,62.89
2023-02-05T09:10:45.037Z,62.55
2023-02-05T09:11:43.120Z,57.97
2023-02-05T09:12:43.104Z,62.60
2023-02-05T09:13:43.597Z,64.24
2023-02-05T09:14:44.606Z,66.00
2023-02-05T09:15:43.073Z,64.67
2023-02-05T09:16:43.620Z,64.20
2023-02-05T09:17:43.060Z,63.40
2023-02-05T09:18:43.075Z,66.58
2023-02-05T09:19:43.048Z,65.50
2023-02-05T09:20:43.052Z,68.47
2023-02-05T09:21:43.031Z,67.04
2023-02-05T09:22:43.029Z,65.82
2023-02-05T09:23:43.013Z,62.64
2023-02-05T09:24:44.517Z,64.54
2023-02-05T09:25:43.003Z,64.83
2023-02-05T09:26:43.007Z,64.16
2023-02-05T09:27:43.030Z,61.26
2023-02-05T09:28:42.970Z,63.56
2023-02-05T09:29:42.966Z,64.23
2023-02-05T09:30:43.079Z,66.71
2023-02-05T09:31:43.020Z,64.44
2023-02-05T09:32:42.993Z,65.40
2023-02-05T09:33:45.417Z,66.66
2023-02-05T09:34:43.523Z,62.79
2023-02-05T09:35:43.926Z,62.21
2023-02-05T09:36:42.924Z,64.09
2023-02-05T09:37:42.907Z,60.90
2023-02-05T09:38:42.906Z,64.01
2023-02-05T09:40:19.022Z,65.13
2023-02-05T09:40:44.875Z,64.55
2023-02-05T09:41:42.924Z,59.84
2023-02-05T09:42:42.930Z,63.42
2023-02-05T09:43:42.856Z,61.31
2023-02-05T09:44:42.850Z,62.84
2023-02-05T09:45:42.837Z,62.84
2023-02-05T09:46:42.836Z,62.17
2023-02-05T09:47:42.868Z,62.52
2023-02-05T09:48:44.600Z,65.03
2023-02-05T09:49:42.807Z,64.39
2023-02-05T09:50:42.865Z,64.48
2023-02-05T09:51:43.526Z,67.15
2023-02-05T09:52:42.782Z,65.73
2023-02-05T09:53:42.793Z,63.46
2023-02-05T09:54:42.762Z,60.75
2023-02-05T09:55:42.768Z,62.20
2023-02-05T09:56:42.745Z,63.18
2023-02-05T09:57:42.744Z,64.14
2023-02-05T09:58:42.735Z,61.83
2023-02-05T09:59:42.722Z,64.13
2023-02-05T10:00:42.763Z,58.32
2023-02-05T10:01:42.742Z,65.36
2023-02-05T10:02:42.691Z,64.50
2023-02-05T10:03:42.733Z,68.94
2023-02-05T10:04:42.736Z,64.45
2023-02-05T10:05:42.684Z,62.24
2023-02-05T10:06:42.677Z,64.37
2023-02-05T10:07:43.659Z,59.87
2023-02-05T10:08:42.648Z,63.55
2023-02-05T10:09:42.648Z,65.28
2023-02-05T10:10:42.646Z,63.10
2023-02-05T10:11:42.631Z,61.16
2023-02-05T10:12:42.635Z,66.31
2023-02-05T10:13:42.610Z,64.79
2023-02-05T10:14:42.619Z,66.84
2023-02-05T10:15:42.617Z,64.68
2023-02-05T10:16:42.599Z,65.46
2023-02-05T10:17:42.581Z,63.98
2023-02-05T10:18:42.580Z,65.66
2023-02-05T10:19:42.566Z,68.29
2023-02-05T10:20:42.549Z,63.69
2023-02-05T10:21:42.552Z,67.81
2023-02-05T10:22:42.537Z,65.38
2023-02-05T10:23:42.534Z,63.19
2023-02-05T10:24:42.522Z,64.28
2023-02-05T10:25:45.228Z,67.60
2023-02-05T10:26:42.514Z,66.91
2023-02-05T10:27:42.524Z,64.21
2023-02-05T10:28:44.114Z,65.28
2023-02-05T10:29:42.483Z,65.51
2023-02-05T10:30:42.588Z,64.41
2023-02-05T10:31:42.551Z,64.52
2023-02-05T10:32:42.477Z,62.18
2023-02-05T10:33:42.462Z,64.82
2023-02-05T10:34:42.443Z,63.44
2023-02-05T10:35:42.443Z,65.73
2023-02-05T10:36:42.432Z,66.11
2023-02-05T10:37:42.429Z,68.35
2023-02-05T10:38:42.414Z,68.02
2023-02-05T10:39:42.403Z,66.36
2023-02-05T10:40:43.104Z,63.75
2023-02-05T10:41:42.385Z,66.18
2023-02-05T10:42:42.384Z,67.83
2023-02-05T10:43:42.381Z,65.26
2023-02-05T10:44:42.367Z,64.23
2023-02-05T10:45:42.354Z,65.77
2023-02-05T10:46:42.396Z,66.70
2023-02-05T10:47:42.339Z,64.67
2023-02-05T10:48:42.418Z,64.52
2023-02-05T10:49:42.328Z,66.39
2023-02-05T10:50:42.322Z,64.09
2023-02-05T10:51:43.118Z,64.03
2023-02-05T10:52:44.144Z,66.40
2023-02-05T10:53:42.311Z,65.93
2023-02-05T10:54:42.300Z,65.78
2023-02-05T10:55:42.275Z,65.49
2023-02-05T10:56:42.277Z,64.63
2023-02-05T10:57:42.261Z,65.71
2023-02-05T10:58:44.200Z,66.39
2023-02-05T10:59:43.114Z,67.20
2023-02-05T11:00:42.261Z,64.90
2023-02-05T11:01:44.237Z,68.65
2023-02-05T11:02:42.323Z,65.96
2023-02-05T11:03:42.225Z,65.66
2023-02-05T11:04:42.218Z,66.30
2023-02-05T11:05:42.202Z,68.28
2023-02-05T11:06:46.108Z,67.68
2023-02-05T11:07:42.191Z,68.02
2023-02-05T11:08:42.172Z,68.09
2023-02-05T11:09:42.182Z,66.91
2023-02-05T11:10:44.030Z,62.89
2023-02-05T11:11:42.216Z,63.96
2023-02-05T11:12:42.154Z,65.62
2023-02-05T11:13:42.150Z,67.25
2023-02-05T11:14:42.128Z,65.83
2023-02-05T11:15:42.128Z,66.05
2023-02-05T11:16:42.148Z,65.73
2023-02-05T11:17:42.107Z,63.49
2023-02-05T11:18:42.144Z,64.33
2023-02-05T11:19:42.085Z,68.29
2023-02-05T11:20:42.639Z,71.91
2023-02-05T11:21:43.040Z,69.37
2023-02-05T11:22:42.061Z,69.81
2023-02-05T11:23:42.052Z,64.95
2023-02-05T11:24:42.045Z,67.33
2023-02-05T11:25:42.054Z,70.25
2023-02-05T11:26:43.040Z,67.30
2023-02-05T11:27:45.559Z,66.85
2023-02-05T11:28:42.108Z,68.89
2023-02-05T11:29:42.030Z,67.04
2023-02-05T11:30:50.755Z,66.24
2023-02-05T11:31:44.106Z,64.05
2023-02-05T11:32:41.991Z,60.03
2023-02-05T11:33:41.978Z,64.43
2023-02-05T11:34:42.050Z,65.55
2023-02-05T11:35:42.538Z,62.89
2023-02-05T11:36:41.966Z,68.75
2023-02-05T11:37:41.956Z,69.64
2023-02-05T11:38:41.954Z,65.50
2023-02-05T11:39:42.543Z,65.35
2023-02-05T11:40:41.923Z,63.77
2023-02-05T11:41:42.537Z,63.48
2023-02-05T11:42:41.929Z,67.05
2023-02-05T11:43:41.900Z,66.62
2023-02-05T11:44:41.894Z,67.61
2023-02-05T11:45:41.886Z,62.97
2023-02-05T11:46:41.915Z,64.97
2023-02-05T11:47:41.866Z,65.95
2023-02-05T11:48:42.005Z,64.92
2023-02-05T11:49:41.857Z,67.54
2023-02-05T11:50:41.856Z,66.05
2023-02-05T11:51:41.934Z,67.07
2023-02-05T11:52:41.837Z,68.31
2023-02-05T11:53:41.821Z,65.42
2023-02-05T11:54:41.812Z,67.63
2023-02-05T11:55:41.812Z,65.50
2023-02-05T11:56:41.810Z,65.40
2023-02-05T11:57:41.883Z,64.80
2023-02-05T11:58:41.829Z,64.19
2023-02-05T11:59:41.778Z,66.92
2023-02-05T12:00:41.774Z,66.38
2023-02-05T12:01:41.818Z,65.62
2023-02-05T12:02:41.775Z,68.39
2023-02-05T12:03:41.750Z,69.50
2023-02-05T12:04:41.742Z,65.26
2023-02-05T12:05:42.548Z,66.83
2023-02-05T12:06:42.682Z,67.24
2023-02-05T12:07:41.719Z,63.14
2023-02-05T12:08:41.714Z,65.80
2023-02-05T12:09:41.719Z,67.91
2023-02-05T12:10:41.697Z,67.65
2023-02-05T12:11:42.560Z,67.87
2023-02-05T12:12:41.689Z,64.75
2023-02-05T12:13:44.723Z,64.06
2023-02-05T12:14:41.702Z,63.24
2023-02-05T12:15:41.659Z,68.36
2023-02-05T12:16:41.684Z,67.26
2023-02-05T12:17:43.622Z,67.28
2023-02-05T12:18:41.654Z,68.17
2023-02-05T12:19:43.553Z,70.36
2023-02-05T12:20:41.657Z,64.64
2023-02-05T12:21:41.612Z,61.99
2023-02-05T12:22:41.609Z,69.40
2023-02-05T12:23:41.600Z,66.76
2023-02-05T12:24:41.592Z,68.41
2023-02-05T12:25:42.674Z,67.67
2023-02-05T12:26:44.550Z,67.36
2023-02-05T12:27:41.600Z,68.50
2023-02-05T12:28:41.558Z,65.97
2023-02-05T12:29:41.544Z,63.70
2023-02-05T12:30:41.554Z,68.62
2023-02-05T12:31:41.598Z,66.27
2023-02-05T12:32:41.522Z,67.08
2023-02-05T12:33:41.503Z,65.22
2023-02-05T12:34:41.506Z,68.49
2023-02-05T12:35:41.495Z,63.36
2023-02-05T12:36:41.489Z,70.03
2023-02-05T12:37:41.476Z,66.02
2023-02-05T12:38:41.469Z,66.25
2023-02-05T12:39:41.457Z,69.09
2023-02-05T12:40:41.474Z,68.63
2023-02-05T12:41:42.749Z,66.06
2023-02-05T12:42:44.140Z,64.01
2023-02-05T12:43:41.420Z,67.79
2023-02-05T12:44:41.431Z,66.22
2023-02-05T12:45:42.063Z,67.04
2023-02-05T12:46:41.396Z,66.73
2023-02-05T12:47:41.395Z,64.60
2023-02-05T12:48:41.374Z,67.32
2023-02-05T12:49:44.045Z,65.06
2023-02-05T12:50:42.364Z,65.97
2023-02-05T12:51:41.352Z,68.60
2023-02-05T12:52:41.338Z,64.91
2023-02-05T12:53:42.355Z,67.89
2023-02-05T12:54:41.341Z,69.75